Time;durP1;ratioP1;P1;durP2;ratioP2;P2;SDS_P1;SDS_P2;PMS_P1;PMS_P2;Temp;Humidity;BMP_temperature;BMP_pressure;BME280_temperature;BME280_humidity;BME280_pressure;Samples;Min_cycle;Max_cycle;Signal;HPM_P1;HPM_P2
2023/06/08 00:00:30;;;;;;;8.73;4.25;;;;;;;;;;5078094;28;20052;-64
2023/06/08 00:03:04;;;;;;;6.85;4.32;;;;;;;;;;5092136;28;20052;-65
2023/06/08 00:05:43;;;;;;;7.25;3.78;;;;;;;;;;5090333;28;20076;-64
2023/06/08 00:08:12;;;;;;;7.45;3.97;;;;;;;;;;5090491;28;20055;-66
2023/06/08 00:10:43;;;;;;;8.00;3.65;;;;;;;;;;5090807;28;20425;-64
2023/06/08 00:13:13;;;;;;;8.23;4.28;;;;;;;;;;5104030;28;20454;-64
2023/06/08 00:15:41;;;;;;;6.55;3.47;;;;;;;;;;5090482;28;20386;-66
2023/06/08 00:18:09;;;;;;;10.07;4.20;;;;;;;;;;5100502;28;20044;-65
2023/06/08 00:20:39;;;;;;;9.07;4.50;;;;;;;;;;5089971;28;20060;-65
2023/06/08 00:23:08;;;;;;;7.88;4.38;;;;;;;;;;5101321;28;20044;-65
2023/06/08 00:25:37;;;;;;;7.90;4.18;;;;;;;;;;5090032;28;20044;-65
2023/06/08 00:28:05;;;;;;;7.07;4.03;;;;;;;;;;5089962;28;20048;-65
2023/06/08 00:30:35;;;;;;;8.07;4.07;;;;;;;;;;5090148;28;20075;-65
2023/06/08 00:33:03;;;;;;;6.95;3.75;;;;;;;;;;5098420;28;20056;-66
2023/06/08 00:35:32;;;;;;;6.32;3.83;;;;;;;;;;5090008;28;20076;-65
2023/06/08 00:38:00;;;;;;;8.40;3.90;;;;;;;;;;5089889;28;20480;-64
2023/06/08 00:40:29;;;;;;;6.47;4.32;;;;;;;;;;5089870;28;20082;-64
2023/06/08 00:42:57;;;;;;;9.60;4.30;;;;;;;;;;5094942;28;20525;-64
2023/06/08 00:45:26;;;;;;;10.20;4.28;;;;;;;;;;5089406;28;20468;-64
2023/06/08 00:47:56;;;;;;;7.28;4.20;;;;;;;;;;5085374;28;20065;-64
2023/06/08 00:50:24;;;;;;;10.63;4.43;;;;;;;;;;5088530;28;20059;-65
2023/06/08 00:52:53;;;;;;;5.53;3.80;;;;;;;;;;5092858;28;20048;-64
2023/06/08 00:55:24;;;;;;;9.32;4.43;;;;;;;;;;5089475;28;20117;-65
2023/06/08 00:57:52;;;;;;;8.32;4.18;;;;;;;;;;5089855;28;20044;-65
2023/06/08 01:00:22;;;;;;;7.80;4.20;;;;;;;;;;5090625;28;20074;-64
2023/06/08 01:02:50;;;;;;;9.13;4.80;;;;;;;;;;5104016;22;20075;-64
2023/06/08 01:05:20;;;;;;;7.80;4.03;;;;;;;;;;5092791;28;20135;-64
2023/06/08 01:07:54;;;;;;;9.63;4.20;;;;;;;;;;5092770;28;20048;-64
2023/06/08 01:10:27;;;;;;;5.85;3.70;;;;;;;;;;5096027;28;20083;-64
2023/06/08 01:12:59;;;;;;;10.07;4.65;;;;;;;;;;5096380;28;20044;-65
2023/06/08 01:15:29;;;;;;;7.05;4.20;;;;;;;;;;5096724;28;20154;-65
2023/06/08 01:18:04;;;;;;;8.38;4.43;;;;;;;;;;5096525;28;20052;-65
2023/06/08 01:20:41;;;;;;;8.80;4.30;;;;;;;;;;5097390;28;20063;-65
2023/06/08 01:23:20;;;;;;;7.50;4.10;;;;;;;;;;5096254;28;20426;-65
2023/06/08 01:25:50;;;;;;;7.32;4.50;;;;;;;;;;5096475;28;20436;-64
2023/06/08 01:28:18;;;;;;;10.07;4.38;;;;;;;;;;5096472;28;20052;-64
2023/06/08 01:30:48;;;;;;;10.27;4.63;;;;;;;;;;5096067;28;20101;-64
2023/06/08 01:33:18;;;;;;;7.68;4.22;;;;;;;;;;5109985;28;20075;-64
2023/06/08 01:35:52;;;;;;;8.27;4.45;;;;;;;;;;5113571;28;20059;-64
2023/06/08 01:38:25;;;;;;;7.82;4.38;;;;;;;;;;5113560;28;20074;-64
2023/06/08 01:40:56;;;;;;;6.07;3.83;;;;;;;;;;5113459;28;20114;-64
2023/06/08 01:43:25;;;;;;;7.30;4.72;;;;;;;;;;5113041;28;20058;-64
2023/06/08 01:45:58;;;;;;;9.68;4.85;;;;;;;;;;5113292;28;20072;-64
2023/06/08 01:48:28;;;;;;;7.70;4.22;;;;;;;;;;5113291;28;20061;-64
2023/06/08 01:50:56;;;;;;;14.10;4.47;;;;;;;;;;5113320;28;20553;-64
2023/06/08 01:53:25;;;;;;;8.50;3.58;;;;;;;;;;5112703;28;20096;-64
2023/06/08 01:55:54;;;;;;;7.82;4.10;;;;;;;;;;5110450;28;20083;-64
2023/06/08 01:58:23;;;;;;;13.00;4.90;;;;;;;;;;5113399;28;20079;-64
2023/06/08 02:00:51;;;;;;;8.43;3.90;;;;;;;;;;5113746;28;20079;-64
2023/06/08 02:03:20;;;;;;;10.88;4.63;;;;;;;;;;5112223;28;20161;-64
2023/06/08 02:05:48;;;;;;;11.25;5.10;;;;;;;;;;5112892;28;20082;-64
2023/06/08 02:08:16;;;;;;;8.40;4.05;;;;;;;;;;5113205;28;20055;-64
2023/06/08 02:10:45;;;;;;;8.60;4.65;;;;;;;;;;5113378;28;20100;-64
2023/06/08 02:13:14;;;;;;;7.93;4.70;;;;;;;;;;5112954;28;20055;-64
2023/06/08 02:15:44;;;;;;;6.78;4.43;;;;;;;;;;5112595;28;20636;-63
2023/06/08 02:18:14;;;;;;;8.02;3.97;;;;;;;;;;5107469;28;20079;-64
2023/06/08 02:20:43;;;;;;;8.18;4.78;;;;;;;;;;5111635;28;20044;-64
2023/06/08 02:23:11;;;;;;;7.32;4.32;;;;;;;;;;5113168;28;20052;-63
2023/06/08 02:25:39;;;;;;;8.00;4.55;;;;;;;;;;5112292;28;20090;-64
2023/06/08 02:28:08;;;;;;;7.03;4.30;;;;;;;;;;5112695;28;20051;-63
2023/06/08 02:30:37;;;;;;;7.65;3.70;;;;;;;;;;5112188;28;20043;-64
2023/06/08 02:33:08;;;;;;;8.10;3.97;;;;;;;;;;5111975;28;20560;-63
2023/06/08 02:35:39;;;;;;;7.22;4.10;;;;;;;;;;5112224;28;20126;-64
2023/06/08 02:38:07;;;;;;;289.48;50.08;;;;;;;;;;5113096;28;20073;-64
2023/06/08 02:40:36;;;;;;;6.45;4.82;;;;;;;;;;5112013;28;20047;-64
2023/06/08 02:43:04;;;;;;;7.75;4.65;;;;;;;;;;5112144;28;20051;-64
2023/06/08 02:45:32;;;;;;;9.02;4.22;;;;;;;;;;5112043;28;20078;-64
2023/06/08 02:48:02;;;;;;;10.13;4.75;;;;;;;;;;5113118;28;20123;-64
2023/06/08 02:50:31;;;;;;;10.10;4.57;;;;;;;;;;5112683;28;20385;-64
2023/06/08 02:52:59;;;;;;;13.63;4.70;;;;;;;;;;5112059;28;20055;-64
2023/06/08 02:55:28;;;;;;;9.30;4.93;;;;;;;;;;5111514;28;20503;-64
2023/06/08 02:57:56;;;;;;;10.70;4.72;;;;;;;;;;5112028;28;20052;-64
2023/06/08 03:00:25;;;;;;;6.53;3.55;;;;;;;;;;5098752;28;20488;-64
2023/06/08 03:02:53;;;;;;;9.90;4.85;;;;;;;;;;5111924;28;20100;-64
2023/06/08 03:05:24;;;;;;;9.25;4.72;;;;;;;;;;5111596;28;20127;-64
2023/06/08 03:07:52;;;;;;;8.00;4.40;;;;;;;;;;5111728;28;20488;-64
2023/06/08 03:10:21;;;;;;;7.72;4.30;;;;;;;;;;5111486;28;20488;-64
2023/06/08 03:12:49;;;;;;;7.38;4.20;;;;;;;;;;5112120;28;20089;-64
2023/06/08 03:15:22;;;;;;;9.23;4.50;;;;;;;;;;5110885;28;20500;-63
2023/06/08 03:17:51;;;;;;;12.07;5.32;;;;;;;;;;5111681;28;20058;-63
2023/06/08 03:20:20;;;;;;;8.63;4.50;;;;;;;;;;5111452;28;20485;-63
2023/06/08 03:22:50;;;;;;;8.88;4.88;;;;;;;;;;5111464;28;20096;-63
2023/06/08 03:25:21;;;;;;;9.25;4.75;;;;;;;;;;5111218;28;20079;-63
2023/06/08 03:27:49;;;;;;;7.68;4.72;;;;;;;;;;5111796;28;20058;-63
2023/06/08 03:30:17;;;;;;;6.78;4.05;;;;;;;;;;5111658;28;20043;-63
2023/06/08 03:32:48;;;;;;;12.95;5.22;;;;;;;;;;5110661;28;20097;-63
2023/06/08 03:35:17;;;;;;;7.85;4.50;;;;;;;;;;5110679;28;20540;-63
2023/06/08 03:37:46;;;;;;;8.48;4.90;;;;;;;;;;5111503;28;20138;-63
2023/06/08 03:40:15;;;;;;;7.15;4.30;;;;;;;;;;5111346;28;20043;-63
2023/06/08 03:42:44;;;;;;;8.02;4.63;;;;;;;;;;5110945;28;20054;-63
2023/06/08 03:45:12;;;;;;;7.55;4.28;;;;;;;;;;5110489;28;20128;-63
2023/06/08 03:47:40;;;;;;;7.75;4.57;;;;;;;;;;5110742;28;20083;-63
2023/06/08 03:50:11;;;;;;;9.65;4.72;;;;;;;;;;5111291;28;20495;-63
2023/06/08 03:52:40;;;;;;;8.85;4.78;;;;;;;;;;5111149;28;20120;-63
2023/06/08 03:55:08;;;;;;;7.47;4.47;;;;;;;;;;5110287;28;20492;-63
2023/06/08 03:57:38;;;;;;;9.35;4.40;;;;;;;;;;5110747;28;20408;-64
2023/06/08 04:00:09;;;;;;;7.75;4.80;;;;;;;;;;5110437;28;20071;-63
2023/06/08 04:02:38;;;;;;;8.50;4.82;;;;;;;;;;5110183;28;20043;-63
2023/06/08 04:05:07;;;;;;;9.00;5.10;;;;;;;;;;5109954;28;20086;-64
2023/06/08 04:07:36;;;;;;;8.93;5.00;;;;;;;;;;5110181;28;20091;-63
2023/06/08 04:10:05;;;;;;;7.07;4.80;;;;;;;;;;5098621;28;20093;-63
2023/06/08 04:12:33;;;;;;;8.55;4.30;;;;;;;;;;5110249;28;20074;-63
2023/06/08 04:15:03;;;;;;;9.98;4.57;;;;;;;;;;5109926;28;20246;-63
2023/06/08 04:17:32;;;;;;;7.30;4.47;;;;;;;;;;5110187;28;20504;-63
2023/06/08 04:20:00;;;;;;;8.23;4.72;;;;;;;;;;5110096;28;20044;-63
2023/06/08 04:22:29;;;;;;;7.63;4.88;;;;;;;;;;5109935;28;20047;-63
2023/06/08 04:24:57;;;;;;;7.88;4.18;;;;;;;;;;5109540;28;20043;-63
2023/06/08 04:27:25;;;;;;;5.93;4.03;;;;;;;;;;5110302;28;20656;-63
2023/06/08 04:29:54;;;;;;;6.07;4.07;;;;;;;;;;5110227;28;20468;-63
2023/06/08 04:32:23;;;;;;;8.80;5.07;;;;;;;;;;5109614;28;20063;-63
2023/06/08 04:34:52;;;;;;;8.18;4.90;;;;;;;;;;5109178;28;20043;-63
2023/06/08 04:37:20;;;;;;;9.00;5.20;;;;;;;;;;5110007;28;20457;-63
2023/06/08 04:39:49;;;;;;;7.78;4.43;;;;;;;;;;5110109;28;20079;-63
2023/06/08 04:42:19;;;;;;;8.50;4.80;;;;;;;;;;5109612;28;20047;-63
2023/06/08 04:44:49;;;;;;;8.43;3.80;;;;;;;;;;5111986;28;20127;-63
2023/06/08 04:47:18;;;;;;;8.93;4.60;;;;;;;;;;5114201;28;20051;-63
2023/06/08 04:49:47;;;;;;;6.30;4.25;;;;;;;;;;5106424;28;20110;-63
2023/06/08 04:52:16;;;;;;;8.60;4.55;;;;;;;;;;5104862;28;20083;-63
2023/06/08 04:54:46;;;;;;;7.30;4.13;;;;;;;;;;5113489;28;20459;-63
2023/06/08 04:57:15;;;;;;;7.65;4.50;;;;;;;;;;5114011;28;20130;-63
2023/06/08 04:59:43;;;;;;;7.75;4.60;;;;;;;;;;5113850;28;20495;-64
2023/06/08 05:02:12;;;;;;;7.38;4.78;;;;;;;;;;5113565;28;20767;-63
2023/06/08 05:04:40;;;;;;;6.65;4.03;;;;;;;;;;5113502;28;20104;-64
2023/06/08 05:07:10;;;;;;;7.25;4.63;;;;;;;;;;5114097;28;20044;-64
2023/06/08 05:09:38;;;;;;;6.53;4.05;;;;;;;;;;5112997;28;20484;-63
2023/06/08 05:12:10;;;;;;;7.68;4.38;;;;;;;;;;5113971;28;20046;-64
2023/06/08 05:14:38;;;;;;;8.43;4.00;;;;;;;;;;5113104;28;20074;-64
2023/06/08 05:17:08;;;;;;;8.57;4.45;;;;;;;;;;5114033;28;20047;-64
2023/06/08 05:19:37;;;;;;;6.97;4.68;;;;;;;;;;5113823;28;20693;-63
2023/06/08 05:22:05;;;;;;;6.28;4.00;;;;;;;;;;5113736;28;20441;-63
2023/06/08 05:24:35;;;;;;;7.13;3.88;;;;;;;;;;5112921;28;20105;-64
2023/06/08 05:27:03;;;;;;;7.55;4.35;;;;;;;;;;5113005;28;20048;-63
2023/06/08 05:29:32;;;;;;;8.23;4.40;;;;;;;;;;5113458;28;20073;-64
2023/06/08 05:32:01;;;;;;;5.93;3.67;;;;;;;;;;5113610;28;20474;-64
2023/06/08 05:34:29;;;;;;;6.68;4.03;;;;;;;;;;5106435;28;20043;-64
2023/06/08 05:36:57;;;;;;;9.10;4.45;;;;;;;;;;5112481;28;20097;-63
2023/06/08 05:39:26;;;;;;;8.02;4.70;;;;;;;;;;5113065;28;20549;-64
2023/06/08 05:41:55;;;;;;;9.95;4.15;;;;;;;;;;5113232;28;20075;-64
2023/06/08 05:44:24;;;;;;;7.50;4.38;;;;;;;;;;5113114;28;20090;-64
2023/06/08 05:46:52;;;;;;;8.27;4.50;;;;;;;;;;5112092;28;20488;-64
2023/06/08 05:49:21;;;;;;;7.53;3.70;;;;;;;;;;5112828;28;20062;-64
2023/06/08 05:51:49;;;;;;;6.00;4.00;;;;;;;;;;5112778;28;20403;-64
2023/06/08 05:54:17;;;;;;;6.68;4.15;;;;;;;;;;5113199;28;20048;-64
2023/06/08 05:56:46;;;;;;;6.30;3.78;;;;;;;;;;5111370;28;20089;-64
2023/06/08 05:59:15;;;;;;;4.80;3.55;;;;;;;;;;5112697;28;20047;-64
2023/06/08 06:01:45;;;;;;;6.30;3.90;;;;;;;;;;5112792;28;20486;-64
2023/06/08 06:04:13;;;;;;;5.60;3.78;;;;;;;;;;5113021;28;20108;-64
2023/06/08 06:07:02;;;;;;;7.20;4.00;;;;;;;;;;5090550;28;20436;-64
2023/06/08 06:09:30;;;;;;;8.55;4.05;;;;;;;;;;5112694;28;20079;-64
2023/06/08 06:11:59;;;;;;;7.78;3.53;;;;;;;;;;5112485;28;20450;-64
2023/06/08 06:14:29;;;;;;;7.57;3.78;;;;;;;;;;5112489;28;20044;-64
2023/06/08 06:16:57;;;;;;;7.65;3.75;;;;;;;;;;5111698;28;20067;-64
2023/06/08 06:19:36;;;;;;;6.60;3.55;;;;;;;;;;5112958;28;20130;-64
2023/06/08 06:22:06;;;;;;;5.53;3.00;;;;;;;;;;5112427;28;20054;-64
2023/06/08 06:24:34;;;;;;;6.65;3.40;;;;;;;;;;5111772;28;20157;-64
2023/06/08 06:27:03;;;;;;;5.32;3.90;;;;;;;;;;5112363;28;20435;-64
2023/06/08 06:29:33;;;;;;;6.40;3.22;;;;;;;;;;5112487;28;20458;-64
2023/06/08 06:32:01;;;;;;;5.32;3.55;;;;;;;;;;5112553;28;20048;-64
2023/06/08 06:34:30;;;;;;;4.20;2.92;;;;;;;;;;5111779;28;20126;-65
2023/06/08 06:36:59;;;;;;;4.85;3.03;;;;;;;;;;5111878;28;20047;-65
2023/06/08 06:39:27;;;;;;;4.80;3.10;;;;;;;;;;5112199;28;20071;-65
2023/06/08 06:41:56;;;;;;;5.60;3.55;;;;;;;;;;5111918;28;20079;-65
2023/06/08 06:44:24;;;;;;;5.38;2.90;;;;;;;;;;5112308;28;20097;-65
2023/06/08 06:46:54;;;;;;;7.90;3.20;;;;;;;;;;5111492;28;20077;-65
2023/06/08 06:49:22;;;;;;;4.07;2.88;;;;;;;;;;5112096;28;20132;-65
2023/06/08 06:51:51;;;;;;;4.72;2.80;;;;;;;;;;5111281;28;20047;-64
2023/06/08 06:54:21;;;;;;;6.00;2.83;;;;;;;;;;5112574;28;20052;-65
2023/06/08 06:56:49;;;;;;;7.63;3.92;;;;;;;;;;5111272;28;20078;-65
2023/06/08 06:59:20;;;;;;;4.43;3.13;;;;;;;;;;5112119;28;20051;-65
2023/06/08 07:01:48;;;;;;;5.10;3.22;;;;;;;;;;5111015;28;20051;-65
2023/06/08 07:04:22;;;;;;;4.75;3.30;;;;;;;;;;5103327;28;20048;-65
2023/06/08 07:06:53;;;;;;;6.18;3.97;;;;;;;;;;5102601;28;20043;-65
2023/06/08 07:09:22;;;;;;;7.32;3.85;;;;;;;;;;5111286;28;20535;-65
2023/06/08 07:11:51;;;;;;;8.13;4.13;;;;;;;;;;5111380;28;20043;-65
2023/06/08 07:14:39;;;;;;;8.25;4.63;;;;;;;;;;5111140;28;20471;-65
2023/06/08 07:17:07;;;;;;;12.18;4.70;;;;;;;;;;5111779;28;20078;-65
2023/06/08 07:19:39;;;;;;;6.53;3.83;;;;;;;;;;5111498;28;20079;-65
2023/06/08 07:22:07;;;;;;;7.10;3.80;;;;;;;;;;5110772;28;20150;-65
2023/06/08 07:24:56;;;;;;;6.22;3.50;;;;;;;;;;5099044;28;20385;-65
2023/06/08 07:27:45;;;;;;;8.45;4.28;;;;;;;;;;5111798;28;20059;-65
2023/06/08 07:30:14;;;;;;;6.38;4.20;;;;;;;;;;5111608;28;20473;-66
2023/06/08 07:32:43;;;;;;;11.80;4.20;;;;;;;;;;5111077;28;20043;-65
2023/06/08 07:35:13;;;;;;;9.57;3.90;;;;;;;;;;5109788;28;20047;-65
2023/06/08 07:37:41;;;;;;;7.78;4.30;;;;;;;;;;5111165;28;20408;-65
2023/06/08 07:40:11;;;;;;;9.15;4.50;;;;;;;;;;5110984;28;20130;-65
2023/06/08 07:42:40;;;;;;;8.48;4.55;;;;;;;;;;5110945;28;20180;-66
2023/06/08 07:45:08;;;;;;;8.13;3.60;;;;;;;;;;5110561;28;20688;-65
2023/06/08 07:47:37;;;;;;;8.43;4.20;;;;;;;;;;5110826;28;20047;-66
2023/06/08 07:50:05;;;;;;;8.65;4.63;;;;;;;;;;5110562;28;20044;-65
2023/06/08 07:52:36;;;;;;;8.90;5.53;;;;;;;;;;5111306;28;20059;-65
2023/06/08 07:55:06;;;;;;;6.82;4.28;;;;;;;;;;5110271;28;20134;-65
2023/06/08 07:57:36;;;;;;;6.95;4.07;;;;;;;;;;5111078;28;20104;-65
2023/06/08 08:00:05;;;;;;;7.70;4.00;;;;;;;;;;5110243;28;20822;-65
2023/06/08 08:02:34;;;;;;;9.73;5.35;;;;;;;;;;5107607;28;20085;-66
2023/06/08 08:05:03;;;;;;;6.40;3.55;;;;;;;;;;5110356;28;20044;-66
2023/06/08 08:07:31;;;;;;;9.15;4.40;;;;;;;;;;5111083;28;20342;-66
2023/06/08 08:10:03;;;;;;;10.95;4.00;;;;;;;;;;5110622;28;20589;-66
2023/06/08 08:12:32;;;;;;;9.13;5.75;;;;;;;;;;5110086;28;20047;-67
2023/06/08 08:15:00;;;;;;;6.07;3.92;;;;;;;;;;5109950;28;20381;-66
2023/06/08 08:17:29;;;;;;;8.95;4.50;;;;;;;;;;5110521;28;20086;-66
2023/06/08 08:19:58;;;;;;;6.63;4.32;;;;;;;;;;5109579;28;20051;-65
2023/06/08 08:22:27;;;;;;;8.90;4.25;;;;;;;;;;5106909;28;20064;-66
2023/06/08 08:24:55;;;;;;;8.05;5.07;;;;;;;;;;5101901;28;20071;-65
2023/06/08 08:27:25;;;;;;;9.75;4.22;;;;;;;;;;5110041;28;20495;-66
2023/06/08 08:29:53;;;;;;;11.23;5.15;;;;;;;;;;5102747;28;20484;-66
2023/06/08 08:32:23;;;;;;;8.25;4.30;;;;;;;;;;5110085;28;21075;-66
2023/06/08 08:34:51;;;;;;;8.13;4.18;;;;;;;;;;5109789;28;20056;-66
2023/06/08 08:37:20;;;;;;;12.63;4.97;;;;;;;;;;5109968;28;20107;-66
2023/06/08 08:39:49;;;;;;;5.63;3.78;;;;;;;;;;5110151;28;20044;-67
2023/06/08 08:42:19;;;;;;;7.97;4.53;;;;;;;;;;5108396;28;20048;-66
2023/06/08 08:44:50;;;;;;;7.30;4.07;;;;;;;;;;5109535;28;20043;-66
2023/06/08 08:47:18;;;;;;;7.90;4.43;;;;;;;;;;5109851;28;20040;-66
2023/06/08 08:49:49;;;;;;;4.78;3.80;;;;;;;;;;5109652;28;20159;-66
2023/06/08 08:52:19;;;;;;;6.82;4.43;;;;;;;;;;5108260;28;20520;-66
2023/06/08 08:54:55;;;;;;;5.85;4.15;;;;;;;;;;5108762;28;20067;-66
2023/06/08 08:57:23;;;;;;;5.30;3.47;;;;;;;;;;5110053;28;20043;-66
2023/06/08 08:59:53;;;;;;;5.72;3.58;;;;;;;;;;5109536;28;20549;-66
2023/06/08 09:02:22;;;;;;;5.55;3.78;;;;;;;;;;5107101;28;20519;-66
2023/06/08 09:04:51;;;;;;;7.45;4.13;;;;;;;;;;5109147;28;20054;-67
2023/06/08 09:07:20;;;;;;;6.07;4.10;;;;;;;;;;5110393;28;20075;-67
2023/06/08 09:10:10;;;;;;;5.50;3.78;;;;;;;;;;5104708;28;20043;-66
2023/06/08 09:12:42;;;;;;;4.05;3.10;;;;;;;;;;5106864;28;20105;-69
2023/06/08 09:15:12;;;;;;;5.07;3.05;;;;;;;;;;5109710;28;20123;-67
2023/06/08 09:17:44;;;;;;;4.88;3.20;;;;;;;;;;5109396;28;20043;-66
2023/06/08 09:20:16;;;;;;;4.93;3.60;;;;;;;;;;5109658;28;20169;-66
2023/06/08 09:22:44;;;;;;;4.60;3.10;;;;;;;;;;5109525;28;20104;-67
2023/06/08 09:25:13;;;;;;;4.30;2.80;;;;;;;;;;5109042;28;20511;-67
2023/06/08 09:27:41;;;;;;;4.75;3.22;;;;;;;;;;5110051;28;20044;-67
2023/06/08 09:30:24;;;;;;;3.30;2.33;;;;;;;;;;5111144;28;20128;-67
2023/06/08 09:32:53;;;;;;;3.83;2.53;;;;;;;;;;5110901;28;20051;-67
2023/06/08 09:35:24;;;;;;;4.15;2.90;;;;;;;;;;5106840;28;20043;-66
2023/06/08 09:37:54;;;;;;;4.55;2.60;;;;;;;;;;5113854;28;20104;-67
2023/06/08 09:40:22;;;;;;;5.47;2.60;;;;;;;;;;5113619;28;20496;-67
2023/06/08 09:42:53;;;;;;;3.97;2.50;;;;;;;;;;5113255;28;20051;-69
2023/06/08 09:45:24;;;;;;;4.57;2.50;;;;;;;;;;5112383;28;20112;-67
2023/06/08 09:47:52;;;;;;;3.17;2.53;;;;;;;;;;5113057;28;20048;-67
2023/06/08 09:50:21;;;;;;;4.03;2.35;;;;;;;;;;5113034;28;20047;-68
2023/06/08 09:52:50;;;;;;;2.80;2.13;;;;;;;;;;5111388;28;20048;-68
2023/06/08 09:55:20;;;;;;;2.70;2.08;;;;;;;;;;5112901;28;20490;-67
2023/06/08 09:57:49;;;;;;;3.88;2.70;;;;;;;;;;5112911;28;20075;-68
2023/06/08 10:00:20;;;;;;;4.47;2.35;;;;;;;;;;5112397;28;20158;-67
2023/06/08 10:02:54;;;;;;;3.70;2.47;;;;;;;;;;5110995;28;20128;-68
2023/06/08 10:05:23;;;;;;;3.13;2.20;;;;;;;;;;5099591;28;20404;-67
2023/06/08 10:07:54;;;;;;;4.00;2.60;;;;;;;;;;5111130;28;20488;-67
2023/06/08 10:10:23;;;;;;;3.22;2.10;;;;;;;;;;5112651;28;20079;-67
2023/06/08 10:12:52;;;;;;;6.57;2.58;;;;;;;;;;5112263;28;20092;-68
2023/06/08 10:15:22;;;;;;;5.00;2.95;;;;;;;;;;5112566;28;20051;-68
2023/06/08 10:17:51;;;;;;;3.25;2.28;;;;;;;;;;5112875;28;20484;-68
2023/06/08 10:20:21;;;;;;;3.85;2.30;;;;;;;;;;5112406;28;20040;-67
2023/06/08 10:22:50;;;;;;;2.83;2.00;;;;;;;;;;5111687;28;20104;-68
2023/06/08 10:25:19;;;;;;;2.95;2.03;;;;;;;;;;5112179;28;20419;-69
2023/06/08 10:27:49;;;;;;;3.83;2.35;;;;;;;;;;5112924;28;20047;-68
2023/06/08 10:30:28;;;;;;;3.20;2.25;;;;;;;;;;5113149;28;20048;-69
2023/06/08 10:33:07;;;;;;;4.85;2.17;;;;;;;;;;5110226;28;20124;-68
2023/06/08 10:35:37;;;;;;;3.33;2.30;;;;;;;;;;5111131;28;20411;-68
2023/06/08 10:38:12;;;;;;;4.68;2.63;;;;;;;;;;5112766;28;20047;-68
2023/06/08 10:40:44;;;;;;;3.72;1.98;;;;;;;;;;5112710;28;20414;-69
2023/06/08 10:43:13;;;;;;;3.63;2.67;;;;;;;;;;5111164;28;20077;-68
2023/06/08 10:45:48;;;;;;;3.78;2.22;;;;;;;;;;5111802;28;20043;-67
2023/06/08 10:48:18;;;;;;;4.38;2.50;;;;;;;;;;5111751;28;20106;-68
2023/06/08 10:50:49;;;;;;;7.03;2.97;;;;;;;;;;5112490;28;20131;-68
2023/06/08 10:53:18;;;;;;;3.00;1.90;;;;;;;;;;5112169;28;20059;-68
2023/06/08 10:55:48;;;;;;;3.45;2.60;;;;;;;;;;5111592;28;20078;-68
2023/06/08 10:58:18;;;;;;;2.78;2.10;;;;;;;;;;5111793;28;20055;-69
2023/06/08 11:00:50;;;;;;;2.97;2.10;;;;;;;;;;5112056;28;20047;-68
2023/06/08 11:03:20;;;;;;;4.43;2.10;;;;;;;;;;5111723;28;20051;-68
2023/06/08 11:05:53;;;;;;;2.72;2.10;;;;;;;;;;5111322;28;20453;-68
2023/06/08 11:08:22;;;;;;;3.17;2.30;;;;;;;;;;5111896;28;20055;-68
2023/06/08 11:10:55;;;;;;;2.92;2.00;;;;;;;;;;5111568;28;20078;-69
2023/06/08 11:13:23;;;;;;;3.38;2.05;;;;;;;;;;5110902;28;20130;-68
2023/06/08 11:15:52;;;;;;;2.38;1.75;;;;;;;;;;5111631;28;20126;-67
2023/06/08 11:18:20;;;;;;;2.33;1.77;;;;;;;;;;5111569;28;20065;-68
2023/06/08 11:20:50;;;;;;;2.53;2.03;;;;;;;;;;5110396;28;20042;-68
2023/06/08 11:23:19;;;;;;;3.25;1.80;;;;;;;;;;5111274;28;20044;-70
2023/06/08 11:25:48;;;;;;;2.10;1.88;;;;;;;;;;5111209;28;20476;-69
2023/06/08 11:28:16;;;;;;;2.92;2.08;;;;;;;;;;5111543;28;20051;-68
2023/06/08 11:30:45;;;;;;;3.65;1.98;;;;;;;;;;5111731;28;20077;-69
2023/06/08 11:33:17;;;;;;;1.67;1.50;;;;;;;;;;5110644;28;20984;-69
2023/06/08 11:35:46;;;;;;;2.97;1.92;;;;;;;;;;5110958;28;20069;-69
2023/06/08 11:38:15;;;;;;;3.55;1.92;;;;;;;;;;5111473;28;20052;-69
2023/06/08 11:40:44;;;;;;;2.70;1.85;;;;;;;;;;5111370;28;20096;-69
2023/06/08 11:43:12;;;;;;;2.67;2.00;;;;;;;;;;5111093;28;20048;-68
2023/06/08 11:45:41;;;;;;;2.33;1.88;;;;;;;;;;5110636;28;20044;-68
2023/06/08 11:48:09;;;;;;;2.60;1.70;;;;;;;;;;5111210;28;20044;-68
2023/06/08 11:50:46;;;;;;;2.70;1.90;;;;;;;;;;5098102;28;20074;-69
2023/06/08 11:53:22;;;;;;;2.58;2.00;;;;;;;;;;5110850;28;20051;-68
2023/06/08 11:55:52;;;;;;;3.00;1.70;;;;;;;;;;5110604;28;20047;-68
2023/06/08 11:58:24;;;;;;;2.70;1.92;;;;;;;;;;5110703;28;20077;-68
2023/06/08 12:01:04;;;;;;;2.50;1.80;;;;;;;;;;5110436;28;20139;-69
2023/06/08 12:03:34;;;;;;;2.85;2.08;;;;;;;;;;5107663;28;20051;-68
2023/06/08 12:06:03;;;;;;;3.78;2.10;;;;;;;;;;5109808;28;20408;-68
2023/06/08 12:08:34;;;;;;;2.35;1.60;;;;;;;;;;5110286;28;20492;-67
2023/06/08 12:11:08;;;;;;;2.72;1.80;;;;;;;;;;5110440;28;20210;-68
2023/06/08 12:13:40;;;;;;;2.58;1.83;;;;;;;;;;5110740;28;20051;-69
2023/06/08 12:16:10;;;;;;;4.95;1.83;;;;;;;;;;5109771;28;20116;-69
2023/06/08 12:18:39;;;;;;;3.50;2.08;;;;;;;;;;5110446;28;20199;-68
2023/06/08 12:21:08;;;;;;;3.05;2.10;;;;;;;;;;5109922;28;20130;-68
2023/06/08 12:23:38;;;;;;;2.97;2.00;;;;;;;;;;5101926;28;20373;-68
2023/06/08 12:26:07;;;;;;;2.70;1.70;;;;;;;;;;5109861;28;20056;-68
2023/06/08 12:28:35;;;;;;;2.45;1.70;;;;;;;;;;5110337;28;20052;-68
2023/06/08 12:31:03;;;;;;;3.05;2.08;;;;;;;;;;5109577;28;20445;-68
2023/06/08 12:33:32;;;;;;;3.03;1.98;;;;;;;;;;5110302;28;20480;-68
2023/06/08 12:36:01;;;;;;;2.00;1.63;;;;;;;;;;5109918;28;20055;-68
2023/06/08 12:38:30;;;;;;;2.47;1.92;;;;;;;;;;5110504;28;20040;-68
2023/06/08 12:41:00;;;;;;;3.08;2.00;;;;;;;;;;5096900;28;20079;-68
2023/06/08 12:43:29;;;;;;;3.05;1.73;;;;;;;;;;5102911;28;20036;-68
2023/06/08 12:45:57;;;;;;;2.80;2.00;;;;;;;;;;5109863;28;20051;-67
2023/06/08 12:48:25;;;;;;;4.00;1.92;;;;;;;;;;5109888;28;20503;-68
2023/06/08 12:50:57;;;;;;;3.65;2.17;;;;;;;;;;5110474;28;20048;-68
2023/06/08 12:53:25;;;;;;;2.55;1.67;;;;;;;;;;5110452;28;20079;-68
2023/06/08 12:55:54;;;;;;;2.92;1.90;;;;;;;;;;5101235;28;20091;-68
2023/06/08 12:58:23;;;;;;;2.90;1.75;;;;;;;;;;5109835;28;20176;-68
2023/06/08 13:00:56;;;;;;;3.58;2.08;;;;;;;;;;5110318;28;20126;-68
2023/06/08 13:03:24;;;;;;;3.92;2.10;;;;;;;;;;5106983;28;20134;-68
2023/06/08 13:05:53;;;;;;;4.07;1.95;;;;;;;;;;5112150;28;20073;-68
2023/06/08 13:08:21;;;;;;;2.55;1.77;;;;;;;;;;5114075;28;20048;-69
2023/06/08 13:10:50;;;;;;;5.20;2.00;;;;;;;;;;5114143;28;20044;-68
2023/06/08 13:13:18;;;;;;;2.15;1.67;;;;;;;;;;5113439;28;20488;-68
2023/06/08 13:15:53;;;;;;;2.78;1.92;;;;;;;;;;5113509;28;20574;-68
2023/06/08 13:18:22;;;;;;;2.67;1.83;;;;;;;;;;5100829;28;20075;-68
2023/06/08 13:20:50;;;;;;;3.05;1.92;;;;;;;;;;5113700;28;20059;-68
2023/06/08 13:23:19;;;;;;;2.58;1.92;;;;;;;;;;5111292;28;20051;-67
2023/06/08 13:25:47;;;;;;;2.17;1.60;;;;;;;;;;5113381;28;20425;-68
2023/06/08 13:28:16;;;;;;;3.20;2.05;;;;;;;;;;5114156;28;20048;-68
2023/06/08 13:30:45;;;;;;;3.92;1.80;;;;;;;;;;5114092;28;20087;-68
2023/06/08 13:33:15;;;;;;;2.15;1.75;;;;;;;;;;5111035;28;20085;-68
2023/06/08 13:35:44;;;;;;;2.00;1.73;;;;;;;;;;5113097;28;20048;-68
2023/06/08 13:38:13;;;;;;;3.42;2.22;;;;;;;;;;5113728;28;20052;-68
2023/06/08 13:40:42;;;;;;;2.95;1.85;;;;;;;;;;5113496;28;20489;-68
2023/06/08 13:43:12;;;;;;;2.88;2.17;;;;;;;;;;5108487;28;20622;-68
2023/06/08 13:45:41;;;;;;;3.92;2.40;;;;;;;;;;5111723;28;20078;-67
2023/06/08 13:48:10;;;;;;;6.03;2.03;;;;;;;;;;5113444;28;20044;-68
2023/06/08 13:50:40;;;;;;;3.58;1.83;;;;;;;;;;5113601;28;20051;-68
2023/06/08 13:53:08;;;;;;;4.47;2.45;;;;;;;;;;5113741;28;20055;-68
2023/06/08 13:55:37;;;;;;;5.40;2.50;;;;;;;;;;5110607;28;20100;-68
2023/06/08 13:58:05;;;;;;;4.93;2.58;;;;;;;;;;5112501;28;20044;-68
2023/06/08 14:00:34;;;;;;;5.22;2.50;;;;;;;;;;5112791;28;20135;-68
2023/06/08 14:03:03;;;;;;;9.20;2.90;;;;;;;;;;5111470;28;20055;-67
2023/06/08 14:05:32;;;;;;;4.85;2.97;;;;;;;;;;5112639;28;20122;-68
2023/06/08 14:08:02;;;;;;;4.50;2.10;;;;;;;;;;5112968;28;20056;-67
2023/06/08 14:10:31;;;;;;;5.65;2.80;;;;;;;;;;5112683;28;20501;-67
2023/06/08 14:12:59;;;;;;;6.82;2.85;;;;;;;;;;5112201;28;20104;-67
2023/06/08 14:15:28;;;;;;;4.82;2.67;;;;;;;;;;5112604;28;20068;-67
2023/06/08 14:17:57;;;;;;;5.78;3.00;;;;;;;;;;5112072;28;20094;-67
2023/06/08 14:20:27;;;;;;;7.72;2.72;;;;;;;;;;5113089;28;20051;-67
2023/06/08 14:22:56;;;;;;;5.13;2.72;;;;;;;;;;5104688;28;20105;-67
2023/06/08 14:25:25;;;;;;;3.78;2.50;;;;;;;;;;5111886;28;20048;-68
2023/06/08 14:27:54;;;;;;;6.70;2.75;;;;;;;;;;5105157;28;20043;-68
2023/06/08 14:30:22;;;;;;;3.63;2.55;;;;;;;;;;5112901;28;20171;-68
2023/06/08 14:32:51;;;;;;;7.10;2.90;;;;;;;;;;5111891;28;20044;-68
2023/06/08 14:35:20;;;;;;;5.30;3.10;;;;;;;;;;5105897;28;20134;-67
2023/06/08 14:37:48;;;;;;;7.47;3.85;;;;;;;;;;5113032;28;20055;-68
2023/06/08 14:40:16;;;;;;;7.18;3.58;;;;;;;;;;5112558;28;20070;-68
2023/06/08 14:42:48;;;;;;;6.72;2.72;;;;;;;;;;5112737;28;20055;-68
2023/06/08 14:45:17;;;;;;;6.63;2.67;;;;;;;;;;5111813;28;20046;-68
2023/06/08 14:47:45;;;;;;;6.43;2.63;;;;;;;;;;5112263;28;20051;-67
2023/06/08 14:50:15;;;;;;;6.40;3.35;;;;;;;;;;5111871;28;20402;-67
2023/06/08 14:52:43;;;;;;;7.47;2.95;;;;;;;;;;5112139;28;20607;-67
2023/06/08 14:55:12;;;;;;;5.43;2.60;;;;;;;;;;5108966;28;20051;-67
2023/06/08 14:57:41;;;;;;;3.63;2.55;;;;;;;;;;5112213;28;20044;-67